sensor_id;sensor_type;location;lat;lon;timestamp;P1;durP1;ratioP1;P2;durP2;ratioP2
20306;SDS011;10312;52.434;13.206;2023-04-06T07:54:58;7.55;;;5.57;;
20306;SDS011;10312;52.434;13.206;2023-04-06T08:09:54;10.55;;;3.88;;
20306;SDS011;10312;52.434;13.206;2023-04-06T08:12:21;6.78;;;3.95;;
20306;SDS011;10312;52.434;13.206;2023-04-06T08:14:48;8.10;;;3.70;;
20306;SDS011;10312;52.434;13.206;2023-04-06T08:17:15;6.53;;;4.13;;
20306;SDS011;10312;52.434;13.206;2023-04-06T08:19:42;7.68;;;4.38;;
20306;SDS011;10312;52.434;13.206;2023-04-06T08:22:10;6.90;;;3.80;;
20306;SDS011;10312;52.434;13.206;2023-04-06T08:24:37;6.70;;;3.90;;
20306;SDS011;10312;52.434;13.206;2023-04-06T08:27:04;5.90;;;3.78;;
20306;SDS011;10312;52.434;13.206;2023-04-06T08:29:31;7.75;;;3.83;;
20306;SDS011;10312;52.434;13.206;2023-04-06T08:31:58;6.75;;;3.80;;
20306;SDS011;10312;52.434;13.206;2023-04-06T08:34:25;4.57;;;3.17;;
20306;SDS011;10312;52.434;13.206;2023-04-06T08:36:52;5.50;;;3.20;;
20306;SDS011;10312;52.434;13.206;2023-04-06T08:39:19;4.82;;;3.60;;
20306;SDS011;10312;52.434;13.206;2023-04-06T08:41:52;5.32;;;3.00;;
20306;SDS011;10312;52.434;13.206;2023-04-06T08:44:19;4.82;;;2.53;;
20306;SDS011;10312;52.434;13.206;2023-04-06T08:46:46;5.05;;;2.50;;
20306;SDS011;10312;52.434;13.206;2023-04-06T08:49:13;7.25;;;2.58;;
20306;SDS011;10312;52.434;13.206;2023-04-06T08:51:40;6.35;;;2.72;;
20306;SDS011;10312;52.434;13.206;2023-04-06T08:54:08;4.57;;;2.22;;
20306;SDS011;10312;52.434;13.206;2023-04-06T08:56:39;3.35;;;1.88;;
20306;SDS011;10312;52.434;13.206;2023-04-06T08:59:07;5.13;;;2.00;;
20306;SDS011;10312;52.434;13.206;2023-04-06T09:01:37;3.80;;;2.33;;
20306;SDS011;10312;52.434;13.206;2023-04-06T09:04:07;5.05;;;2.20;;
20306;SDS011;10312;52.434;13.206;2023-04-06T09:06:38;7.25;;;2.28;;
20306;SDS011;10312;52.434;13.206;2023-04-06T09:09:07;5.53;;;2.13;;
20306;SDS011;10312;52.434;13.206;2023-04-06T09:11:50;3.63;;;1.95;;
20306;SDS011;10312;52.434;13.206;2023-04-06T09:14:33;3.45;;;1.75;;
20306;SDS011;10312;52.434;13.206;2023-04-06T09:17:03;3.15;;;1.75;;
20306;SDS011;10312;52.434;13.206;2023-04-06T09:19:30;3.85;;;1.92;;
20306;SDS011;10312;52.434;13.206;2023-04-06T09:22:02;4.50;;;2.25;;
20306;SDS011;10312;52.434;13.206;2023-04-06T09:24:39;3.70;;;1.83;;
20306;SDS011;10312;52.434;13.206;2023-04-06T09:27:07;3.22;;;1.75;;
20306;SDS011;10312;52.434;13.206;2023-04-06T09:29:34;3.88;;;2.15;;
20306;SDS011;10312;52.434;13.206;2023-04-06T09:32:06;2.83;;;1.67;;
20306;SDS011;10312;52.434;13.206;2023-04-06T09:34:33;3.60;;;1.60;;
20306;SDS011;10312;52.434;13.206;2023-04-06T09:37:00;3.70;;;1.90;;
20306;SDS011;10312;52.434;13.206;2023-04-06T09:39:38;4.40;;;2.30;;
20306;SDS011;10312;52.434;13.206;2023-04-06T09:42:05;3.55;;;1.83;;
20306;SDS011;10312;52.434;13.206;2023-04-06T09:44:32;2.72;;;1.50;;
20306;SDS011;10312;52.434;13.206;2023-04-06T09:46:59;3.47;;;1.85;;
20306;SDS011;10312;52.434;13.206;2023-04-06T09:49:27;3.67;;;2.03;;
20306;SDS011;10312;52.434;13.206;2023-04-06T09:51:59;3.35;;;1.77;;
20306;SDS011;10312;52.434;13.206;2023-04-06T09:54:28;4.30;;;2.25;;
20306;SDS011;10312;52.434;13.206;2023-04-06T09:57:04;3.30;;;1.90;;
20306;SDS011;10312;52.434;13.206;2023-04-06T10:02:34;3.38;;;1.88;;
20306;SDS011;10312;52.434;13.206;2023-04-06T10:05:09;2.67;;;1.88;;
20306;SDS011;10312;52.434;13.206;2023-04-06T10:07:42;4.50;;;2.35;;
20306;SDS011;10312;52.434;13.206;2023-04-06T10:10:26;2.92;;;1.83;;
20306;SDS011;10312;52.434;13.206;2023-04-06T10:12:54;4.90;;;1.80;;
20306;SDS011;10312;52.434;13.206;2023-04-06T10:15:22;4.28;;;2.00;;
20306;SDS011;10312;52.434;13.206;2023-04-06T10:17:49;3.22;;;2.00;;
20306;SDS011;10312;52.434;13.206;2023-04-06T10:25:29;4.60;;;2.08;;
20306;SDS011;10312;52.434;13.206;2023-04-06T10:28:07;5.97;;;1.90;;
20306;SDS011;10312;52.434;13.206;2023-04-06T10:30:36;3.58;;;2.45;;
20306;SDS011;10312;52.434;13.206;2023-04-06T10:33:14;3.70;;;2.20;;
20306;SDS011;10312;52.434;13.206;2023-04-06T10:35:42;4.18;;;2.30;;
20306;SDS011;10312;52.434;13.206;2023-04-06T10:38:09;3.15;;;2.28;;
20306;SDS011;10312;52.434;13.206;2023-04-06T10:40:41;5.07;;;2.10;;
20306;SDS011;10312;52.434;13.206;2023-04-06T10:43:18;5.13;;;2.60;;
20306;SDS011;10312;52.434;13.206;2023-04-06T10:45:54;3.45;;;2.28;;
20306;SDS011;10312;52.434;13.206;2023-04-06T10:48:22;3.47;;;2.20;;
20306;SDS011;10312;52.434;13.206;2023-04-06T10:50:51;3.47;;;2.45;;
20306;SDS011;10312;52.434;13.206;2023-04-06T10:53:22;3.45;;;2.33;;
20306;SDS011;10312;52.434;13.206;2023-04-06T10:55:51;3.35;;;2.17;;
20306;SDS011;10312;52.434;13.206;2023-04-06T10:58:18;3.88;;;2.15;;
20306;SDS011;10312;52.434;13.206;2023-04-06T11:00:46;3.42;;;2.10;;
20306;SDS011;10312;52.434;13.206;2023-04-06T11:03:16;3.75;;;2.47;;
20306;SDS011;10312;52.434;13.206;2023-04-06T11:05:44;3.10;;;2.17;;
20306;SDS011;10312;52.434;13.206;2023-04-06T11:08:24;3.60;;;2.20;;
20306;SDS011;10312;52.434;13.206;2023-04-06T11:10:52;3.60;;;2.00;;
20306;SDS011;10312;52.434;13.206;2023-04-06T11:13:19;4.05;;;2.60;;
20306;SDS011;10312;52.434;13.206;2023-04-06T11:15:46;6.93;;;3.33;;
20306;SDS011;10312;52.434;13.206;2023-04-06T11:18:13;3.55;;;2.13;;
20306;SDS011;10312;52.434;13.206;2023-04-06T11:20:47;8.32;;;2.40;;
20306;SDS011;10312;52.434;13.206;2023-04-06T11:23:21;5.32;;;2.33;;
20306;SDS011;10312;52.434;13.206;2023-04-06T11:25:52;2.72;;;1.95;;
20306;SDS011;10312;52.434;13.206;2023-04-06T11:28:19;3.72;;;2.28;;
20306;SDS011;10312;52.434;13.206;2023-04-06T11:30:46;4.03;;;2.30;;
20306;SDS011;10312;52.434;13.206;2023-04-06T11:33:20;4.65;;;2.78;;
20306;SDS011;10312;52.434;13.206;2023-04-06T11:35:48;3.67;;;2.28;;
20306;SDS011;10312;52.434;13.206;2023-04-06T11:38:17;3.90;;;2.50;;
20306;SDS011;10312;52.434;13.206;2023-04-06T11:40:45;4.20;;;2.10;;
20306;SDS011;10312;52.434;13.206;2023-04-06T11:43:12;3.53;;;1.92;;
20306;SDS011;10312;52.434;13.206;2023-04-06T11:45:39;4.32;;;2.28;;
20306;SDS011;10312;52.434;13.206;2023-04-06T11:48:17;3.92;;;2.17;;
20306;SDS011;10312;52.434;13.206;2023-04-06T11:50:46;4.45;;;2.30;;
20306;SDS011;10312;52.434;13.206;2023-04-06T11:53:14;3.28;;;2.30;;
20306;SDS011;10312;52.434;13.206;2023-04-06T11:55:40;3.67;;;2.53;;
20306;SDS011;10312;52.434;13.206;2023-04-06T11:58:11;3.80;;;2.30;;
20306;SDS011;10312;52.434;13.206;2023-04-06T12:00:38;5.18;;;2.45;;
20306;SDS011;10312;52.434;13.206;2023-04-06T12:03:05;3.70;;;2.20;;
20306;SDS011;10312;52.434;13.206;2023-04-06T12:05:33;4.95;;;2.38;;
20306;SDS011;10312;52.434;13.206;2023-04-06T12:07:59;3.47;;;2.20;;
20306;SDS011;10312;52.434;13.206;2023-04-06T12:10:29;4.95;;;2.00;;
20306;SDS011;10312;52.434;13.206;2023-04-06T12:12:56;3.15;;;1.92;;
20306;SDS011;10312;52.434;13.206;2023-04-06T12:15:23;4.75;;;1.92;;
20306;SDS011;10312;52.434;13.206;2023-04-06T12:17:49;5.88;;;2.33;;
20306;SDS011;10312;52.434;13.206;2023-04-06T12:20:16;6.10;;;2.22;;
20306;SDS011;10312;52.434;13.206;2023-04-06T12:22:52;3.67;;;2.08;;
20306;SDS011;10312;52.434;13.206;2023-04-06T12:25:19;5.03;;;2.03;;
20306;SDS011;10312;52.434;13.206;2023-04-06T12:27:46;5.13;;;1.70;;
20306;SDS011;10312;52.434;13.206;2023-04-06T12:30:13;4.03;;;1.83;;
20306;SDS011;10312;52.434;13.206;2023-04-06T12:32:40;3.65;;;2.28;;
20306;SDS011;10312;52.434;13.206;2023-04-06T12:35:08;2.78;;;1.83;;
20306;SDS011;10312;52.434;13.206;2023-04-06T12:37:35;2.78;;;1.83;;
20306;SDS011;10312;52.434;13.206;2023-04-06T12:40:03;3.38;;;1.95;;
20306;SDS011;10312;52.434;13.206;2023-04-06T12:42:30;4.05;;;1.77;;
20306;SDS011;10312;52.434;13.206;2023-04-06T12:44:57;5.25;;;1.90;;
20306;SDS011;10312;52.434;13.206;2023-04-06T12:47:25;3.53;;;1.98;;
20306;SDS011;10312;52.434;13.206;2023-04-06T12:49:53;3.08;;;1.83;;
20306;SDS011;10312;52.434;13.206;2023-04-06T12:52:20;4.03;;;2.13;;
20306;SDS011;10312;52.434;13.206;2023-04-06T12:54:47;2.53;;;1.90;;
20306;SDS011;10312;52.434;13.206;2023-04-06T12:57:16;4.93;;;2.08;;
20306;SDS011;10312;52.434;13.206;2023-04-06T12:59:43;3.15;;;1.92;;
20306;SDS011;10312;52.434;13.206;2023-04-06T13:02:11;3.47;;;1.98;;
20306;SDS011;10312;52.434;13.206;2023-04-06T13:04:38;2.78;;;1.90;;
20306;SDS011;10312;52.434;13.206;2023-04-06T13:07:05;4.57;;;2.10;;
20306;SDS011;10312;52.434;13.206;2023-04-06T13:09:32;3.20;;;1.73;;
20306;SDS011;10312;52.434;13.206;2023-04-06T13:11:58;4.13;;;1.85;;
20306;SDS011;10312;52.434;13.206;2023-04-06T13:14:25;3.33;;;2.08;;
20306;SDS011;10312;52.434;13.206;2023-04-06T13:16:52;3.47;;;1.88;;
20306;SDS011;10312;52.434;13.206;2023-04-06T13:19:19;4.15;;;2.28;;
20306;SDS011;10312;52.434;13.206;2023-04-06T13:21:46;3.58;;;2.10;;
20306;SDS011;10312;52.434;13.206;2023-04-06T13:24:13;4.38;;;1.90;;
20306;SDS011;10312;52.434;13.206;2023-04-06T13:26:42;3.05;;;1.80;;
20306;SDS011;10312;52.434;13.206;2023-04-06T13:29:09;2.40;;;1.90;;
20306;SDS011;10312;52.434;13.206;2023-04-06T13:31:36;2.72;;;1.90;;
20306;SDS011;10312;52.434;13.206;2023-04-06T13:34:03;2.33;;;1.65;;
20306;SDS011;10312;52.434;13.206;2023-04-06T13:36:30;5.07;;;2.05;;
20306;SDS011;10312;52.434;13.206;2023-04-06T13:38:58;3.75;;;2.10;;
20306;SDS011;10312;52.434;13.206;2023-04-06T13:41:25;2.55;;;1.90;;
20306;SDS011;10312;52.434;13.206;2023-04-06T13:43:52;4.85;;;2.25;;
20306;SDS011;10312;52.434;13.206;2023-04-06T13:46:19;4.10;;;2.13;;
20306;SDS011;10312;52.434;13.206;2023-04-06T13:48:46;6.38;;;2.38;;
20306;SDS011;10312;52.434;13.206;2023-04-06T13:51:14;4.40;;;2.22;;
20306;SDS011;10312;52.434;13.206;2023-04-06T13:53:41;4.32;;;2.10;;
20306;SDS011;10312;52.434;13.206;2023-04-06T13:56:08;4.63;;;2.35;;
20306;SDS011;10312;52.434;13.206;2023-04-06T13:58:35;3.08;;;1.83;;
20306;SDS011;10312;52.434;13.206;2023-04-06T14:01:06;3.85;;;2.08;;
20306;SDS011;10312;52.434;13.206;2023-04-06T14:03:37;2.85;;;2.00;;
20306;SDS011;10312;52.434;13.206;2023-04-06T14:06:13;8.00;;;2.42;;
20306;SDS011;10312;52.434;13.206;2023-04-06T14:08:56;4.57;;;2.40;;
20306;SDS011;10312;52.434;13.206;2023-04-06T14:11:23;3.88;;;2.30;;
20306;SDS011;10312;52.434;13.206;2023-04-06T14:13:50;7.57;;;2.35;;
20306;SDS011;10312;52.434;13.206;2023-04-06T14:16:17;3.55;;;2.40;;
20306;SDS011;10312;52.434;13.206;2023-04-06T14:18:46;2.67;;;2.10;;
20306;SDS011;10312;52.434;13.206;2023-04-06T14:21:16;2.58;;;1.90;;
20306;SDS011;10312;52.434;13.206;2023-04-06T14:23:42;3.97;;;2.20;;
20306;SDS011;10312;52.434;13.206;2023-04-06T14:26:10;11.20;;;2.72;;
20306;SDS011;10312;52.434;13.206;2023-04-06T14:28:36;4.40;;;2.50;;
20306;SDS011;10312;52.434;13.206;2023-04-06T14:31:09;5.80;;;2.70;;
20306;SDS011;10312;52.434;13.206;2023-04-06T14:33:38;4.72;;;2.53;;
20306;SDS011;10312;52.434;13.206;2023-04-06T14:36:06;4.00;;;2.58;;
20306;SDS011;10312;52.434;13.206;2023-04-06T14:38:33;3.58;;;2.30;;
20306;SDS011;10312;52.434;13.206;2023-04-06T14:41:01;4.95;;;2.70;;
20306;SDS011;10312;52.434;13.206;2023-04-06T14:43:28;5.28;;;2.60;;
20306;SDS011;10312;52.434;13.206;2023-04-06T14:45:59;5.60;;;2.65;;
20306;SDS011;10312;52.434;13.206;2023-04-06T14:48:26;4.47;;;2.35;;
20306;SDS011;10312;52.434;13.206;2023-04-06T14:50:53;4.35;;;2.35;;
20306;SDS011;10312;52.434;13.206;2023-04-06T14:53:23;4.70;;;2.67;;
20306;SDS011;10312;52.434;13.206;2023-04-06T14:55:51;3.70;;;2.15;;
20306;SDS011;10312;52.434;13.206;2023-04-06T14:58:19;4.88;;;2.60;;
20306;SDS011;10312;52.434;13.206;2023-04-06T15:00:46;5.78;;;2.40;;
20306;SDS011;10312;52.434;13.206;2023-04-06T15:03:13;3.90;;;2.53;;
20306;SDS011;10312;52.434;13.206;2023-04-06T15:05:41;3.95;;;2.38;;
20306;SDS011;10312;52.434;13.206;2023-04-06T15:08:08;5.95;;;2.38;;
20306;SDS011;10312;52.434;13.206;2023-04-06T15:10:40;3.97;;;2.08;;
20306;SDS011;10312;52.434;13.206;2023-04-06T15:13:07;5.30;;;2.60;;
20306;SDS011;10312;52.434;13.206;2023-04-06T15:15:37;4.35;;;2.30;;
20306;SDS011;10312;52.434;13.206;2023-04-06T15:18:04;4.43;;;2.35;;
20306;SDS011;10312;52.434;13.206;2023-04-06T15:20:31;4.20;;;2.58;;
20306;SDS011;10312;52.434;13.206;2023-04-06T15:22:58;3.50;;;2.38;;
20306;SDS011;10312;52.434;13.206;2023-04-06T15:25:25;4.32;;;2.60;;
20306;SDS011;10312;52.434;13.206;2023-04-06T15:27:52;4.35;;;2.30;;
20306;SDS011;10312;52.434;13.206;2023-04-06T15:30:18;3.25;;;2.50;;
20306;SDS011;10312;52.434;13.206;2023-04-06T15:32:52;4.35;;;2.40;;
20306;SDS011;10312;52.434;13.206;2023-04-06T15:35:21;4.72;;;2.67;;
20306;SDS011;10312;52.434;13.206;2023-04-06T15:37:48;3.97;;;2.47;;
20306;SDS011;10312;52.434;13.206;2023-04-06T15:40:15;4.10;;;2.50;;
20306;SDS011;10312;52.434;13.206;2023-04-06T15:42:42;5.57;;;2.70;;
20306;SDS011;10312;52.434;13.206;2023-04-06T15:45:10;5.90;;;2.10;;
20306;SDS011;10312;52.434;13.206;2023-04-06T15:47:37;4.72;;;2.72;;
20306;SDS011;10312;52.434;13.206;2023-04-06T15:50:05;4.28;;;2.78;;
20306;SDS011;10312;52.434;13.206;2023-04-06T15:52:34;6.95;;;2.72;;
20306;SDS011;10312;52.434;13.206;2023-04-06T15:55:02;5.30;;;2.58;;
20306;SDS011;10312;52.434;13.206;2023-04-06T15:57:30;4.50;;;2.80;;
20306;SDS011;10312;52.434;13.206;2023-04-06T15:59:57;4.72;;;2.50;;
20306;SDS011;10312;52.434;13.206;2023-04-06T16:02:24;4.32;;;2.47;;
20306;SDS011;10312;52.434;13.206;2023-04-06T16:04:58;3.40;;;2.20;;
20306;SDS011;10312;52.434;13.206;2023-04-06T16:07:28;3.65;;;2.30;;
20306;SDS011;10312;52.434;13.206;2023-04-06T16:09:55;3.95;;;2.83;;
20306;SDS011;10312;52.434;13.206;2023-04-06T16:12:23;4.43;;;2.53;;
20306;SDS011;10312;52.434;13.206;2023-04-06T16:14:51;4.00;;;2.25;;
20306;SDS011;10312;52.434;13.206;2023-04-06T16:17:18;4.50;;;2.80;;
20306;SDS011;10312;52.434;13.206;2023-04-06T16:19:45;6.70;;;2.67;;
20306;SDS011;10312;52.434;13.206;2023-04-06T16:22:12;5.55;;;2.97;;
20306;SDS011;10312;52.434;13.206;2023-04-06T16:24:39;3.83;;;2.83;;
20306;SDS011;10312;52.434;13.206;2023-04-06T16:27:05;3.60;;;2.42;;
20306;SDS011;10312;52.434;13.206;2023-04-06T16:29:33;3.25;;;2.28;;
20306;SDS011;10312;52.434;13.206;2023-04-06T16:32:01;4.07;;;2.75;;
20306;SDS011;10312;52.434;13.206;2023-04-06T16:34:32;4.43;;;2.97;;
20306;SDS011;10312;52.434;13.206;2023-04-06T16:36:59;4.60;;;2.15;;
20306;SDS011;10312;52.434;13.206;2023-04-06T16:39:27;3.60;;;2.28;;
20306;SDS011;10312;52.434;13.206;2023-04-06T16:41:54;3.85;;;2.25;;
20306;SDS011;10312;52.434;13.206;2023-04-06T16:44:21;3.92;;;2.38;;
20306;SDS011;10312;52.434;13.206;2023-04-06T16:46:49;5.93;;;2.78;;
20306;SDS011;10312;52.434;13.206;2023-04-06T16:49:16;4.75;;;2.58;;
20306;SDS011;10312;52.434;13.206;2023-04-06T16:51:45;3.70;;;2.58;;
20306;SDS011;10312;52.434;13.206;2023-04-06T16:54:12;5.15;;;2.13;;
20306;SDS011;10312;52.434;13.206;2023-04-06T16:56:39;3.70;;;2.30;;
20306;SDS011;10312;52.434;13.206;2023-04-06T16:59:09;5.63;;;2.60;;
20306;SDS011;10312;52.434;13.206;2023-04-06T17:01:36;5.72;;;2.50;;
20306;SDS011;10312;52.434;13.206;2023-04-06T17:04:03;3.67;;;2.35;;
20306;SDS011;10312;52.434;13.206;2023-04-06T17:06:30;3.22;;;2.47;;
20306;SDS011;10312;52.434;13.206;2023-04-06T17:08:57;3.55;;;2.28;;
